Time;durP1;ratioP1;P1;durP2;ratioP2;P2;SDS_P1;SDS_P2;PMS_P1;PMS_P2;Temp;Humidity;BMP_temperature;BMP_pressure;BME280_temperature;BME280_humidity;BME280_pressure;Samples;Min_cycle;Max_cycle;Signal;HPM_P1;HPM_P2
2023/04/09 00:01:38;;;;;;;;;;;14.90;82.10;;;;;;5115420;27;20316;-70
2023/04/09 00:04:04;;;;;;;;;;;15.00;82.20;;;;;;5115529;28;19915;-70
2023/04/09 00:06:30;;;;;;;;;;;15.00;82.20;;;;;;5114178;28;19908;-71
2023/04/09 00:08:55;;;;;;;;;;;14.90;82.20;;;;;;5115162;28;19916;-71
2023/04/09 00:11:21;;;;;;;;;;;14.90;82.20;;;;;;5114060;28;19914;-71
2023/04/09 00:13:46;;;;;;;;;;;14.90;82.20;;;;;;5115302;28;20020;-71
2023/04/09 00:16:11;;;;;;;;;;;14.90;82.20;;;;;;5115818;28;19908;-70
2023/04/09 00:18:37;;;;;;;;;;;14.90;82.20;;;;;;5115394;28;20388;-69
2023/04/09 00:21:02;;;;;;;;;;;14.90;82.20;;;;;;5116281;28;19908;-70
2023/04/09 00:23:28;;;;;;;;;;;14.90;82.20;;;;;;5115971;28;20045;-70
2023/04/09 00:25:54;;;;;;;;;;;14.90;82.30;;;;;;5116153;28;20320;-70
2023/04/09 00:28:19;;;;;;;;;;;14.90;82.30;;;;;;5115006;28;19915;-70
2023/04/09 00:30:44;;;;;;;;;;;14.90;82.30;;;;;;5114695;28;20030;-71
2023/04/09 00:33:10;;;;;;;;;;;14.90;82.30;;;;;;5114618;28;19917;-71
2023/04/09 00:35:35;;;;;;;;;;;14.90;82.30;;;;;;5115678;28;20366;-71
2023/04/09 00:38:01;;;;;;;;;;;14.90;82.30;;;;;;5115918;28;19914;-71
2023/04/09 00:40:26;;;;;;;;;;;14.90;82.30;;;;;;5116256;28;20351;-71
2023/04/09 00:42:52;;;;;;;;;;;14.90;82.30;;;;;;5115853;27;19924;-70
2023/04/09 00:45:17;;;;;;;;;;;14.90;82.30;;;;;;5114647;28;19956;-70
2023/04/09 00:47:45;;;;;;;;;;;14.90;82.30;;;;;;5114974;28;19908;-70
2023/04/09 00:50:10;;;;;;;;;;;14.90;82.30;;;;;;5116250;28;19911;-69
2023/04/09 00:52:36;;;;;;;;;;;14.90;82.30;;;;;;5115590;28;19921;-70
2023/04/09 00:55:03;;;;;;;;;;;14.90;82.40;;;;;;5114824;28;19923;-69
2023/04/09 00:57:28;;;;;;;;;;;14.80;82.30;;;;;;5114978;28;20006;-71
2023/04/09 00:59:54;;;;;;;;;;;14.90;82.40;;;;;;5116784;28;19947;-70
2023/04/09 01:02:19;;;;;;;;;;;14.80;82.30;;;;;;5116069;28;19956;-70
2023/04/09 01:04:45;;;;;;;;;;;14.80;82.40;;;;;;5114338;28;19955;-70
2023/04/09 01:07:14;;;;;;;;;;;14.80;82.40;;;;;;5116337;28;20053;-69
2023/04/09 01:09:41;;;;;;;;;;;14.80;82.40;;;;;;5115773;28;19907;-69
2023/04/09 01:12:06;;;;;;;;;;;14.80;82.40;;;;;;5115212;28;19974;-69
2023/04/09 01:14:43;;;;;;;;;;;14.80;82.40;;;;;;5114327;28;20385;-70
2023/04/09 01:17:15;;;;;;;;;;;14.80;82.40;;;;;;5115462;28;19934;-68
2023/04/09 01:19:41;;;;;;;;;;;14.80;82.40;;;;;;5115984;28;19908;-69
2023/04/09 01:22:12;;;;;;;;;;;14.80;82.40;;;;;;5115900;28;20006;-70
2023/04/09 01:24:50;;;;;;;;;;;14.80;82.40;;;;;;5114159;28;19953;-70
2023/04/09 01:27:16;;;;;;;;;;;14.80;82.50;;;;;;5114978;28;19915;-70
2023/04/09 01:29:46;;;;;;;;;;;14.80;82.50;;;;;;5115667;28;19907;-69
2023/04/09 01:32:12;;;;;;;;;;;14.80;82.50;;;;;;5115716;28;19908;-68
2023/04/09 01:34:38;;;;;;;;;;;14.80;82.50;;;;;;5115517;27;19908;-69
2023/04/09 01:37:05;;;;;;;;;;;14.70;82.40;;;;;;5114524;28;19915;-69
2023/04/09 01:39:31;;;;;;;;;;;14.80;82.50;;;;;;5115707;28;19961;-69
2023/04/09 01:41:56;;;;;;;;;;;14.80;82.50;;;;;;5116087;28;19919;-69
2023/04/09 01:44:23;;;;;;;;;;;14.80;82.50;;;;;;5116898;28;19908;-70
2023/04/09 01:46:49;;;;;;;;;;;14.80;82.50;;;;;;5119454;28;19908;-70
2023/04/09 01:49:15;;;;;;;;;;;14.80;82.50;;;;;;5119975;28;19911;-70
2023/04/09 01:51:41;;;;;;;;;;;14.70;82.50;;;;;;5119291;28;19968;-69
2023/04/09 01:54:07;;;;;;;;;;;14.70;82.50;;;;;;5117414;28;20362;-70
2023/04/09 01:56:39;;;;;;;;;;;14.80;82.50;;;;;;5118008;28;20290;-70
2023/04/09 01:59:04;;;;;;;;;;;14.80;82.60;;;;;;5117930;28;19908;-70
2023/04/09 02:01:46;;;;;;;;;;;14.70;82.50;;;;;;5118420;28;19916;-70
2023/04/09 02:04:16;;;;;;;;;;;14.70;83.10;;;;;;5116548;28;19978;-69
2023/04/09 02:06:52;;;;;;;;;;;14.70;82.60;;;;;;5119528;27;20307;-70
2023/04/09 02:09:19;;;;;;;;;;;14.70;82.60;;;;;;5119538;28;19908;-70
2023/04/09 02:11:46;;;;;;;;;;;14.70;82.60;;;;;;5118364;28;19908;-69
2023/04/09 02:14:11;;;;;;;;;;;14.70;82.60;;;;;;5118718;28;20000;-67
2023/04/09 02:16:37;;;;;;;;;;;14.70;82.60;;;;;;5118101;28;19908;-68
2023/04/09 02:19:03;;;;;;;;;;;14.70;82.60;;;;;;5119193;27;20385;-67
2023/04/09 02:21:28;;;;;;;;;;;14.70;82.60;;;;;;5117336;27;19908;-69
2023/04/09 02:23:54;;;;;;;;;;;14.70;82.60;;;;;;5117498;28;19938;-69
2023/04/09 02:26:20;;;;;;;;;;;14.70;83.10;;;;;;5117012;28;19915;-69
2023/04/09 02:28:46;;;;;;;;;;;14.70;82.60;;;;;;5117366;28;19908;-69
2023/04/09 02:31:11;;;;;;;;;;;14.70;82.60;;;;;;5115931;28;20003;-68
2023/04/09 02:33:37;;;;;;;;;;;14.70;83.20;;;;;;5117521;28;20343;-69
2023/04/09 02:36:03;;;;;;;;;;;14.70;82.60;;;;;;5115848;28;19908;-69
2023/04/09 02:38:28;;;;;;;;;;;14.70;82.60;;;;;;5117114;28;19908;-70
2023/04/09 02:40:54;;;;;;;;;;;14.70;82.70;;;;;;5115821;28;19930;-69
2023/04/09 02:43:19;;;;;;;;;;;14.70;82.70;;;;;;5117103;28;19920;-69
2023/04/09 02:45:44;;;;;;;;;;;14.70;82.70;;;;;;5117020;28;19964;-70
2023/04/09 02:48:10;;;;;;;;;;;14.60;82.70;;;;;;5116977;28;19933;-70
2023/04/09 02:50:36;;;;;;;;;;;14.70;82.70;;;;;;5115449;28;19908;-69
2023/04/09 02:53:02;;;;;;;;;;;14.60;82.60;;;;;;5116579;28;19955;-70
2023/04/09 02:55:27;;;;;;;;;;;14.70;82.70;;;;;;5116822;28;20012;-70
2023/04/09 02:57:53;;;;;;;;;;;14.70;82.70;;;;;;5117062;28;19990;-69
2023/04/09 03:00:18;;;;;;;;;;;14.60;82.70;;;;;;5117037;28;19912;-70
2023/04/09 03:02:44;;;;;;;;;;;14.70;82.70;;;;;;5116779;28;19919;-69
2023/04/09 03:05:09;;;;;;;;;;;14.70;82.80;;;;;;5116953;28;19970;-70
2023/04/09 03:07:35;;;;;;;;;;;14.60;82.70;;;;;;5116882;28;19998;-70
2023/04/09 03:10:00;;;;;;;;;;;14.60;82.70;;;;;;5116222;27;20405;-70
2023/04/09 03:12:25;;;;;;;;;;;14.60;82.70;;;;;;5116428;28;19965;-70
2023/04/09 03:14:51;;;;;;;;;;;14.60;82.70;;;;;;5116340;28;19915;-70
2023/04/09 03:17:16;;;;;;;;;;;14.60;82.70;;;;;;5116391;28;20055;-70
2023/04/09 03:19:42;;;;;;;;;;;14.60;82.70;;;;;;5116290;28;19915;-69
2023/04/09 03:22:07;;;;;;;;;;;14.60;82.70;;;;;;5114611;28;19934;-70
2023/04/09 03:24:33;;;;;;;;;;;14.60;82.70;;;;;;5115936;28;19954;-69
2023/04/09 03:26:58;;;;;;;;;;;14.60;82.70;;;;;;5116130;28;19915;-70
2023/04/09 03:29:24;;;;;;;;;;;14.60;82.70;;;;;;5115826;28;19908;-70
2023/04/09 03:31:50;;;;;;;;;;;14.60;82.70;;;;;;5114733;28;20405;-70
2023/04/09 03:34:15;;;;;;;;;;;14.60;82.80;;;;;;5115963;27;19935;-69
2023/04/09 03:36:41;;;;;;;;;;;14.60;82.80;;;;;;5114685;28;19908;-70
2023/04/09 03:39:06;;;;;;;;;;;14.60;82.80;;;;;;5115579;28;19998;-70
2023/04/09 03:41:32;;;;;;;;;;;14.60;82.80;;;;;;5114314;28;19908;-70
2023/04/09 03:43:57;;;;;;;;;;;14.60;82.80;;;;;;5115541;28;20422;-70
2023/04/09 03:46:23;;;;;;;;;;;14.60;82.80;;;;;;5114498;28;19957;-70
2023/04/09 03:48:49;;;;;;;;;;;14.60;82.80;;;;;;5114366;28;20270;-70
2023/04/09 03:51:15;;;;;;;;;;;14.60;82.80;;;;;;5116107;28;19912;-69
2023/04/09 03:53:40;;;;;;;;;;;14.60;82.90;;;;;;5115643;28;20371;-69
2023/04/09 03:56:06;;;;;;;;;;;14.50;82.80;;;;;;5115848;28;20008;-70
2023/04/09 03:58:32;;;;;;;;;;;14.50;83.30;;;;;;5114317;28;19908;-69
2023/04/09 04:00:57;;;;;;;;;;;14.50;82.80;;;;;;5115200;28;19914;-70
2023/04/09 04:03:23;;;;;;;;;;;14.50;82.80;;;;;;5113383;28;20377;-70
2023/04/09 04:05:48;;;;;;;;;;;14.50;82.80;;;;;;5115126;28;19912;-70
2023/04/09 04:08:14;;;;;;;;;;;14.50;82.80;;;;;;5115077;27;19912;-70
2023/04/09 04:10:39;;;;;;;;;;;14.50;82.80;;;;;;5115353;28;20294;-70
2023/04/09 04:13:05;;;;;;;;;;;14.50;82.80;;;;;;5114014;28;19919;-70
2023/04/09 04:15:30;;;;;;;;;;;14.50;82.80;;;;;;5114904;28;20355;-69
2023/04/09 04:17:56;;;;;;;;;;;14.50;82.80;;;;;;5113930;28;19958;-69
2023/04/09 04:20:21;;;;;;;;;;;14.50;82.80;;;;;;5115190;28;19960;-69
2023/04/09 04:22:47;;;;;;;;;;;14.50;82.80;;;;;;5115101;28;19918;-70
2023/04/09 04:25:12;;;;;;;;;;;14.50;82.80;;;;;;5115074;28;19964;-69
2023/04/09 04:27:41;;;;;;;;;;;14.50;82.80;;;;;;5114848;28;19912;-70
2023/04/09 04:30:07;;;;;;;;;;;14.50;82.80;;;;;;5115391;28;19912;-70
2023/04/09 04:32:32;;;;;;;;;;;14.50;82.80;;;;;;5113694;28;19908;-70
2023/04/09 04:34:58;;;;;;;;;;;14.50;82.80;;;;;;5114647;28;19914;-70
2023/04/09 04:37:23;;;;;;;;;;;14.50;82.90;;;;;;5113732;28;19922;-70
2023/04/09 04:39:49;;;;;;;;;;;14.50;82.90;;;;;;5114909;28;19922;-70
2023/04/09 04:42:15;;;;;;;;;;;14.50;82.90;;;;;;5113362;28;20356;-69
2023/04/09 04:44:40;;;;;;;;;;;14.50;82.90;;;;;;5114899;28;19955;-69
2023/04/09 04:47:06;;;;;;;;;;;14.50;82.90;;;;;;5114526;28;20339;-70
2023/04/09 04:49:31;;;;;;;;;;;14.50;82.90;;;;;;5114813;28;19908;-70
2023/04/09 04:51:57;;;;;;;;;;;14.50;82.90;;;;;;5113538;28;19907;-69
2023/04/09 04:54:22;;;;;;;;;;;14.50;82.90;;;;;;5115062;28;19907;-70
2023/04/09 04:56:48;;;;;;;;;;;14.50;82.90;;;;;;5113556;28;19915;-69
2023/04/09 04:59:13;;;;;;;;;;;14.50;82.90;;;;;;5114489;28;20403;-70
2023/04/09 05:01:38;;;;;;;;;;;14.50;82.90;;;;;;5114616;28;19908;-70
2023/04/09 05:04:04;;;;;;;;;;;14.50;82.90;;;;;;5114615;28;19912;-69
2023/04/09 05:06:30;;;;;;;;;;;14.50;82.90;;;;;;5114567;28;19918;-70
2023/04/09 05:08:57;;;;;;;;;;;14.50;83.00;;;;;;5114579;28;19931;-69
2023/04/09 05:11:23;;;;;;;;;;;14.40;82.90;;;;;;5114838;28;19908;-70
2023/04/09 05:13:49;;;;;;;;;;;14.40;82.90;;;;;;5114507;28;19922;-70
2023/04/09 05:16:16;;;;;;;;;;;14.50;83.00;;;;;;5118745;28;20354;-69
2023/04/09 05:18:41;;;;;;;;;;;14.50;83.00;;;;;;5119032;28;20366;-70
2023/04/09 05:21:07;;;;;;;;;;;14.40;82.90;;;;;;5118925;28;19908;-70
2023/04/09 05:23:32;;;;;;;;;;;14.40;82.90;;;;;;5117231;28;19916;-70
2023/04/09 05:25:58;;;;;;;;;;;14.40;83.00;;;;;;5118593;28;20311;-70
2023/04/09 05:28:23;;;;;;;;;;;14.40;83.00;;;;;;5117230;28;19908;-70
2023/04/09 05:30:49;;;;;;;;;;;14.40;83.00;;;;;;5117027;28;19943;-70
2023/04/09 05:33:14;;;;;;;;;;;14.40;83.00;;;;;;5118398;28;19964;-68
2023/04/09 05:35:40;;;;;;;;;;;14.40;83.00;;;;;;5118345;28;19953;-69
2023/04/09 05:38:05;;;;;;;;;;;14.40;83.00;;;;;;5116986;28;20259;-70
2023/04/09 05:40:31;;;;;;;;;;;14.40;83.00;;;;;;5118262;27;19918;-70
2023/04/09 05:42:56;;;;;;;;;;;14.40;83.00;;;;;;5116301;28;19920;-69
2023/04/09 05:45:22;;;;;;;;;;;14.40;83.00;;;;;;5116803;28;19908;-69
2023/04/09 05:47:47;;;;;;;;;;;14.40;83.00;;;;;;5117743;28;19915;-69
2023/04/09 05:50:13;;;;;;;;;;;14.40;83.00;;;;;;5116835;28;19915;-70
2023/04/09 05:52:38;;;;;;;;;;;14.40;83.00;;;;;;5116437;28;20006;-70
2023/04/09 05:55:05;;;;;;;;;;;14.40;83.10;;;;;;5116540;28;20152;-70
2023/04/09 05:57:31;;;;;;;;;;;14.40;83.10;;;;;;5117914;28;19954;-70
2023/04/09 05:59:57;;;;;;;;;;;14.40;83.10;;;;;;5116607;28;19908;-70
2023/04/09 06:02:23;;;;;;;;;;;14.40;83.10;;;;;;5117724;28;19916;-70
2023/04/09 06:04:49;;;;;;;;;;;14.40;83.10;;;;;;5117786;28;19936;-70
2023/04/09 06:07:15;;;;;;;;;;;14.40;83.10;;;;;;5117750;28;19919;-70
2023/04/09 06:09:42;;;;;;;;;;;14.40;83.10;;;;;;5117396;28;19939;-69
2023/04/09 06:12:08;;;;;;;;;;;14.40;83.20;;;;;;5116331;28;19915;-70
2023/04/09 06:14:34;;;;;;;;;;;14.40;83.20;;;;;;5117560;28;19908;-70
2023/04/09 06:16:59;;;;;;;;;;;14.40;83.20;;;;;;5116168;28;19926;-70
2023/04/09 06:19:25;;;;;;;;;;;14.40;83.20;;;;;;5117153;28;19919;-69
2023/04/09 06:21:50;;;;;;;;;;;14.40;83.20;;;;;;5117415;28;19941;-69
2023/04/09 06:24:16;;;;;;;;;;;14.30;83.20;;;;;;5117446;28;19908;-69
2023/04/09 06:26:41;;;;;;;;;;;14.40;83.20;;;;;;5116563;27;19962;-69
2023/04/09 06:29:07;;;;;;;;;;;14.40;83.20;;;;;;5117328;28;19915;-70
2023/04/09 06:31:32;;;;;;;;;;;14.30;83.20;;;;;;5116799;28;20345;-69
2023/04/09 06:33:58;;;;;;;;;;;14.30;83.20;;;;;;5117164;28;19907;-70
2023/04/09 06:36:23;;;;;;;;;;;14.30;83.30;;;;;;5116812;28;20378;-70
2023/04/09 06:38:49;;;;;;;;;;;14.30;83.30;;;;;;5117068;28;19915;-70
2023/04/09 06:41:15;;;;;;;;;;;14.30;83.30;;;;;;5117209;28;19919;-70
2023/04/09 06:43:40;;;;;;;;;;;14.30;83.30;;;;;;5117223;28;20419;-70
2023/04/09 06:46:06;;;;;;;;;;;14.30;83.30;;;;;;5115716;28;20282;-70
2023/04/09 06:48:31;;;;;;;;;;;14.30;83.30;;;;;;5115635;28;20394;-70
2023/04/09 06:50:56;;;;;;;;;;;14.30;83.30;;;;;;5117121;28;19914;-69
2023/04/09 06:53:22;;;;;;;;;;;14.30;83.30;;;;;;5115641;28;19908;-70
2023/04/09 06:55:47;;;;;;;;;;;14.30;83.30;;;;;;5115343;28;19907;-68
2023/04/09 06:58:13;;;;;;;;;;;14.30;83.30;;;;;;5116354;28;20035;-70
2023/04/09 07:00:38;;;;;;;;;;;14.30;83.40;;;;;;5116323;28;19954;-70
2023/04/09 07:03:06;;;;;;;;;;;14.30;83.90;;;;;;5116666;27;19922;-70
2023/04/09 07:05:32;;;;;;;;;;;14.30;83.40;;;;;;5116487;28;19914;-69
2023/04/09 07:07:57;;;;;;;;;;;14.30;83.40;;;;;;5116188;27;19907;-69
2023/04/09 07:10:23;;;;;;;;;;;14.30;83.40;;;;;;5116428;28;20423;-69
2023/04/09 07:12:48;;;;;;;;;;;14.30;83.40;;;;;;5116016;28;20007;-69
2023/04/09 07:15:14;;;;;;;;;;;14.30;83.50;;;;;;5116006;28;19908;-70
2023/04/09 07:17:39;;;;;;;;;;;14.20;83.40;;;;;;5115794;28;20413;-70
2023/04/09 07:20:05;;;;;;;;;;;14.20;83.50;;;;;;5116225;28;19916;-70
2023/04/09 07:22:30;;;;;;;;;;;14.30;83.50;;;;;;5114698;28;20412;-70
2023/04/09 07:24:56;;;;;;;;;;;14.30;83.50;;;;;;5114988;28;19908;-70
2023/04/09 07:27:22;;;;;;;;;;;14.20;83.50;;;;;;5116074;28;20362;-69
2023/04/09 07:29:48;;;;;;;;;;;14.20;83.50;;;;;;5116076;28;19914;-70
2023/04/09 07:32:14;;;;;;;;;;;14.20;83.50;;;;;;5114675;28;19912;-70
2023/04/09 07:34:40;;;;;;;;;;;14.20;83.50;;;;;;5115848;28;19908;-70
2023/04/09 07:37:06;;;;;;;;;;;14.20;83.40;;;;;;5114575;28;19908;-69
2023/04/09 07:39:31;;;;;;;;;;;14.20;83.50;;;;;;5114551;28;19908;-70
2023/04/09 07:41:57;;;;;;;;;;;14.10;83.50;;;;;;5115603;28;20346;-69
2023/04/09 07:44:23;;;;;;;;;;;14.20;83.70;;;;;;5115526;28;20000;-70
2023/04/09 07:46:48;;;;;;;;;;;14.20;83.40;;;;;;5114375;28;19908;-69
2023/04/09 07:49:15;;;;;;;;;;;14.20;83.60;;;;;;5114401;28;19930;-70
2023/04/09 07:51:40;;;;;;;;;;;14.10;83.50;;;;;;5115434;28;19954;-70
2023/04/09 07:54:06;;;;;;;;;;;14.10;83.40;;;;;;5115246;28;19908;-70
2023/04/09 07:56:31;;;;;;;;;;;14.10;83.60;;;;;;5115356;28;19908;-70
2023/04/09 07:58:57;;;;;;;;;;;14.10;83.60;;;;;;5115093;28;19908;-70
2023/04/09 08:01:23;;;;;;;;;;;14.10;83.80;;;;;;5115346;28;20262;-70
2023/04/09 08:03:49;;;;;;;;;;;14.10;83.80;;;;;;5115525;28;19916;-69
2023/04/09 08:06:15;;;;;;;;;;;14.10;83.50;;;;;;5114254;28;19973;-70
2023/04/09 08:08:40;;;;;;;;;;;14.10;83.70;;;;;;5114920;28;19943;-70
2023/04/09 08:11:06;;;;;;;;;;;14.10;83.70;;;;;;5113814;28;19908;-69
2023/04/09 08:13:32;;;;;;;;;;;14.10;83.70;;;;;;5113818;28;19908;-70
2023/04/09 08:15:59;;;;;;;;;;;14.10;83.80;;;;;;5114973;28;19939;-69
2023/04/09 08:18:24;;;;;;;;;;;14.00;83.70;;;;;;5115102;28;19985;-69
2023/04/09 08:20:50;;;;;;;;;;;14.10;83.70;;;;;;5115087;28;20255;-70
2023/04/09 08:23:15;;;;;;;;;;;14.10;84.00;;;;;;5114569;28;19938;-70
2023/04/09 08:25:41;;;;;;;;;;;14.00;83.70;;;;;;5115238;28;19914;-70
2023/04/09 08:28:07;;;;;;;;;;;14.00;83.80;;;;;;5114716;28;19908;-69
2023/04/09 08:30:33;;;;;;;;;;;14.00;83.90;;;;;;5114865;28;19946;-70
2023/04/09 08:32:59;;;;;;;;;;;14.00;83.90;;;;;;5114447;28;19908;-70
2023/04/09 08:35:25;;;;;;;;;;;14.00;83.90;;;;;;5114317;28;19912;-70
2023/04/09 08:37:50;;;;;;;;;;;14.00;84.00;;;;;;5113666;28;19908;-69
2023/04/09 08:40:16;;;;;;;;;;;14.00;84.00;;;;;;5114841;28;19943;-70
2023/04/09 08:42:45;;;;;;;;;;;14.00;83.90;;;;;;5114643;28;19973;-69
2023/04/09 08:45:11;;;;;;;;;;;13.90;83.90;;;;;;5114423;28;19912;-69
2023/04/09 08:47:37;;;;;;;;;;;13.90;83.90;;;;;;5114885;28;19908;-70
2023/04/09 08:50:03;;;;;;;;;;;13.90;84.10;;;;;;5114057;28;20254;-69
2023/04/09 08:52:32;;;;;;;;;;;13.90;84.10;;;;;;5114432;27;19915;-69
2023/04/09 08:54:58;;;;;;;;;;;13.90;84.10;;;;;;5113288;28;19915;-70
2023/04/09 08:57:23;;;;;;;;;;;13.90;84.10;;;;;;5113356;28;19908;-69
2023/04/09 08:59:49;;;;;;;;;;;13.90;84.10;;;;;;5114510;28;20270;-67
2023/04/09 09:02:14;;;;;;;;;;;13.90;84.20;;;;;;5114419;28;19920;-69
2023/04/09 09:04:46;;;;;;;;;;;13.90;84.10;;;;;;5113159;28;19922;-69
2023/04/09 09:07:12;;;;;;;;;;;13.90;84.10;;;;;;5113233;28;19915;-70
2023/04/09 09:09:51;;;;;;;;;;;13.90;84.20;;;;;;5114482;28;20270;-70
2023/04/09 09:12:37;;;;;;;;;;;13.90;84.20;;;;;;5114520;28;19908;-70
2023/04/09 09:15:04;;;;;;;;;;;13.90;84.30;;;;;;5114213;28;19907;-70
2023/04/09 09:17:29;;;;;;;;;;;13.90;84.30;;;;;;5114131;28;19915;-70
2023/04/09 09:19:55;;;;;;;;;;;13.90;84.20;;;;;;5114319;27;19912;-70
2023/04/09 09:22:20;;;;;;;;;;;13.90;84.30;;;;;;5114213;28;19916;-69
2023/04/09 09:24:50;;;;;;;;;;;13.90;84.30;;;;;;5112994;28;19930;-70
2023/04/09 09:27:35;;;;;;;;;;;13.90;84.30;;;;;;5114107;28;19912;-71
2023/04/09 09:30:02;;;;;;;;;;;13.90;84.20;;;;;;5113780;28;19951;-70
2023/04/09 09:32:28;;;;;;;;;;;13.90;84.30;;;;;;5113873;28;19915;-70
2023/04/09 09:35:11;;;;;;;;;;;13.90;84.30;;;;;;5112721;28;20278;-70
2023/04/09 09:37:37;;;;;;;;;;;13.80;84.30;;;;;;5112978;28;20011;-70
2023/04/09 09:40:03;;;;;;;;;;;13.90;84.30;;;;;;5112969;28;20360;-70
2023/04/09 09:42:28;;;;;;;;;;;13.90;84.20;;;;;;5113937;28;19927;-70
2023/04/09 09:44:54;;;;;;;;;;;13.90;84.10;;;;;;5112772;28;20263;-70
2023/04/09 09:47:20;;;;;;;;;;;13.90;84.10;;;;;;5114051;28;20008;-70
2023/04/09 09:49:49;;;;;;;;;;;13.90;84.10;;;;;;5112785;28;20394;-70
2023/04/09 09:52:16;;;;;;;;;;;13.90;84.20;;;;;;5112886;28;19908;-70
2023/04/09 09:54:46;;;;;;;;;;;13.90;84.10;;;;;;5114007;28;19908;-70
2023/04/09 09:57:12;;;;;;;;;;;13.90;84.10;;;;;;5112617;28;19915;-70
2023/04/09 09:59:46;;;;;;;;;;;13.90;84.10;;;;;;5114015;28;19911;-71
2023/04/09 10:02:19;;;;;;;;;;;13.90;84.00;;;;;;5114824;28;19939;-70
2023/04/09 10:04:47;;;;;;;;;;;13.90;84.10;;;;;;5117964;28;19908;-70
2023/04/09 10:07:13;;;;;;;;;;;13.90;84.10;;;;;;5116467;28;19955;-70
2023/04/09 10:09:40;;;;;;;;;;;13.90;83.70;;;;;;5117302;28;19911;-71
2023/04/09 10:12:07;;;;;;;;;;;13.80;83.60;;;;;;5117605;28;19919;-70
2023/04/09 10:14:34;;;;;;;;;;;13.80;84.30;;;;;;5116045;28;19958;-70
2023/04/09 10:17:00;;;;;;;;;;;13.80;84.10;;;;;;5117470;28;19955;-70
2023/04/09 10:19:26;;;;;;;;;;;13.80;83.90;;;;;;5117373;28;19914;-70
2023/04/09 10:21:58;;;;;;;;;;;13.80;83.70;;;;;;5117095;28;19909;-69
2023/04/09 10:24:23;;;;;;;;;;;13.80;83.70;;;;;;5117784;28;19915;-70
2023/04/09 10:26:52;;;;;;;;;;;13.80;83.70;;;;;;5117000;27;19908;-70
2023/04/09 10:29:25;;;;;;;;;;;13.80;83.40;;;;;;5117329;28;19907;-70
2023/04/09 10:31:51;;;;;;;;;;;13.90;83.80;;;;;;5117297;28;19908;-69
2023/04/09 10:34:20;;;;;;;;;;;13.90;83.60;;;;;;5115856;28;19907;-70
2023/04/09 10:36:52;;;;;;;;;;;13.90;83.60;;;;;;5117019;28;19907;-70
2023/04/09 10:39:17;;;;;;;;;;;13.80;83.60;;;;;;5115676;28;19961;-70
2023/04/09 10:41:44;;;;;;;;;;;13.80;83.70;;;;;;5115442;28;19923;-70
2023/04/09 10:44:31;;;;;;;;;;;13.80;84.00;;;;;;5117075;28;20259;-70
2023/04/09 10:46:56;;;;;;;;;;;13.80;83.80;;;;;;5115389;28;19950;-70
2023/04/09 10:49:23;;;;;;;;;;;13.80;83.90;;;;;;5117000;28;19943;-69
2023/04/09 10:52:01;;;;;;;;;;;13.80;83.80;;;;;;5115532;28;19908;-70
2023/04/09 10:54:32;;;;;;;;;;;13.80;83.40;;;;;;5115480;28;19908;-69
2023/04/09 10:57:10;;;;;;;;;;;13.80;83.50;;;;;;5116710;28;19939;-70
2023/04/09 10:59:36;;;;;;;;;;;13.80;83.80;;;;;;5116416;28;19912;-69
2023/04/09 11:02:05;;;;;;;;;;;13.90;83.80;;;;;;5116507;28;19939;-69
2023/04/09 11:04:51;;;;;;;;;;;13.80;83.70;;;;;;5115157;28;19915;-69
2023/04/09 11:07:18;;;;;;;;;;;13.80;83.70;;;;;;5094595;28;19953;-69
2023/04/09 11:09:44;;;;;;;;;;;13.80;83.90;;;;;;5115166;28;19915;-69
2023/04/09 11:12:12;;;;;;;;;;;13.90;83.40;;;;;;5115827;28;19908;-69
2023/04/09 11:14:37;;;;;;;;;;;13.80;83.60;;;;;;5115946;28;19935;-69
2023/04/09 11:17:03;;;;;;;;;;;13.80;83.40;;;;;;5114823;28;20379;-69
2023/04/09 11:19:29;;;;;;;;;;;13.80;83.70;;;;;;5114997;28;19908;-69
2023/04/09 11:21:54;;;;;;;;;;;13.80;83.80;;;;;;5116110;28;19943;-69
2023/04/09 11:24:20;;;;;;;;;;;13.80;83.70;;;;;;5116020;28;19907;-70
2023/04/09 11:26:47;;;;;;;;;;;13.80;83.90;;;;;;5114810;28;19907;-69
2023/04/09 11:29:12;;;;;;;;;;;13.80;83.60;;;;;;5116345;28;19908;-69
2023/04/09 11:31:38;;;;;;;;;;;13.80;83.80;;;;;;5114636;28;20450;-69
2023/04/09 11:34:03;;;;;;;;;;;13.80;83.70;;;;;;5115554;28;19908;-70
2023/04/09 11:36:29;;;;;;;;;;;13.80;83.60;;;;;;5115850;28;20374;-69
2023/04/09 11:38:55;;;;;;;;;;;13.80;83.80;;;;;;5115798;28;19950;-70
2023/04/09 11:41:36;;;;;;;;;;;13.80;83.90;;;;;;5115627;28;19908;-68
2023/04/09 11:44:03;;;;;;;;;;;13.80;83.60;;;;;;5114502;28;19916;-69
2023/04/09 11:46:29;;;;;;;;;;;13.80;83.20;;;;;;5115742;28;19961;-70
2023/04/09 11:48:55;;;;;;;;;;;13.80;83.50;;;;;;5114358;28;20385;-69
2023/04/09 11:51:21;;;;;;;;;;;13.80;83.70;;;;;;5114198;28;19908;-70
2023/04/09 11:53:48;;;;;;;;;;;13.80;83.60;;;;;;5115453;27;19911;-69
2023/04/09 11:56:14;;;;;;;;;;;13.80;83.50;;;;;;5115651;28;19953;-70
2023/04/09 11:58:43;;;;;;;;;;;13.80;83.60;;;;;;5115850;28;20308;-69
2023/04/09 12:01:09;;;;;;;;;;;13.80;83.80;;;;;;5114022;28;20419;-69
2023/04/09 12:03:36;;;;;;;;;;;13.80;83.70;;;;;;5114004;28;19920;-70
2023/04/09 12:06:01;;;;;;;;;;;13.80;83.90;;;;;;5115596;28;19941;-70
2023/04/09 12:08:27;;;;;;;;;;;13.80;83.60;;;;;;5114096;28;19918;-69
2023/04/09 12:10:53;;;;;;;;;;;13.80;83.70;;;;;;5114994;28;19915;-68
2023/04/09 12:13:19;;;;;;;;;;;13.80;83.90;;;;;;5115257;28;19915;-70
2023/04/09 12:15:47;;;;;;;;;;;13.80;84.00;;;;;;5113852;28;20321;-70
2023/04/09 12:18:12;;;;;;;;;;;13.80;84.10;;;;;;5115511;28;19915;-70
2023/04/09 12:20:45;;;;;;;;;;;13.80;84.20;;;;;;5114768;28;19908;-69
2023/04/09 12:23:11;;;;;;;;;;;13.80;84.30;;;;;;5114944;28;19921;-70
2023/04/09 12:25:38;;;;;;;;;;;13.80;84.30;;;;;;5113509;28;20255;-69
2023/04/09 12:28:04;;;;;;;;;;;13.80;84.30;;;;;;5114775;28;20389;-70
2023/04/09 12:30:30;;;;;;;;;;;13.80;84.40;;;;;;5115006;28;19923;-70
2023/04/09 12:32:55;;;;;;;;;;;13.80;84.30;;;;;;5114555;28;19912;-70
2023/04/09 12:35:21;;;;;;;;;;;13.80;84.30;;;;;;5114808;28;19908;-70
2023/04/09 12:37:47;;;;;;;;;;;13.80;84.30;;;;;;5114577;28;19915;-70
2023/04/09 12:40:12;;;;;;;;;;;13.80;84.40;;;;;;5114776;28;19915;-70
2023/04/09 12:42:40;;;;;;;;;;;13.80;84.80;;;;;;5114058;28;20288;-70
2023/04/09 12:45:06;;;;;;;;;;;13.90;84.60;;;;;;5114719;28;19911;-70
2023/04/09 12:47:32;;;;;;;;;;;14.00;84.30;;;;;;5114319;28;19953;-69
2023/04/09 12:49:57;;;;;;;;;;;14.10;84.00;;;;;;5114762;27;19908;-70
2023/04/09 12:52:23;;;;;;;;;;;14.30;83.90;;;;;;5114743;28;19994;-70
2023/04/09 12:54:49;;;;;;;;;;;14.30;83.70;;;;;;5114757;28;20359;-70
2023/04/09 12:57:15;;;;;;;;;;;14.40;83.60;;;;;;5114285;28;19911;-70
2023/04/09 12:59:40;;;;;;;;;;;14.50;83.40;;;;;;5114625;28;19961;-69
2023/04/09 13:02:06;;;;;;;;;;;14.60;83.20;;;;;;5114195;28;19916;-69
2023/04/09 13:04:32;;;;;;;;;;;14.60;83.00;;;;;;5113311;28;19914;-69
2023/04/09 13:06:57;;;;;;;;;;;14.70;82.80;;;;;;5114223;27;19908;-70
2023/04/09 13:09:23;;;;;;;;;;;14.80;82.70;;;;;;5114840;28;20376;-69
2023/04/09 13:11:48;;;;;;;;;;;14.80;82.50;;;;;;5114438;28;19915;-70
2023/04/09 13:14:14;;;;;;;;;;;14.80;82.40;;;;;;5112496;28;19908;-69
2023/04/09 13:16:40;;;;;;;;;;;14.90;82.40;;;;;;5113018;28;19959;-70
2023/04/09 13:19:07;;;;;;;;;;;14.90;82.30;;;;;;5114160;28;19955;-70
2023/04/09 13:21:32;;;;;;;;;;;14.90;82.30;;;;;;5114316;28;19944;-69
2023/04/09 13:23:57;;;;;;;;;;;14.90;82.30;;;;;;5112979;28;19966;-70
2023/04/09 13:26:23;;;;;;;;;;;14.90;82.30;;;;;;5112969;28;20293;-70
2023/04/09 13:28:50;;;;;;;;;;;14.90;82.30;;;;;;5114192;28;19915;-70
2023/04/09 13:31:16;;;;;;;;;;;14.80;82.20;;;;;;5114253;28;19990;-70
2023/04/09 13:33:41;;;;;;;;;;;14.80;82.20;;;;;;5113875;28;20270;-70
2023/04/09 13:36:07;;;;;;;;;;;14.80;82.20;;;;;;5116670;28;20297;-70
2023/04/09 13:38:32;;;;;;;;;;;14.80;82.20;;;;;;5117011;28;19974;-70
2023/04/09 13:40:58;;;;;;;;;;;14.80;82.20;;;;;;5116935;28;20026;-71
2023/04/09 13:43:26;;;;;;;;;;;14.80;82.20;;;;;;5116461;28;19927;-70
2023/04/09 13:45:52;;;;;;;;;;;14.80;82.20;;;;;;5118061;28;19911;-70
2023/04/09 13:48:19;;;;;;;;;;;14.80;82.20;;;;;;5116765;28;19930;-71
2023/04/09 13:50:45;;;;;;;;;;;14.80;82.20;;;;;;5117903;28;20016;-70
2023/04/09 13:53:10;;;;;;;;;;;14.80;82.20;;;;;;5117497;28;19908;-69
2023/04/09 13:55:36;;;;;;;;;;;14.80;82.20;;;;;;5117685;28;19915;-69
2023/04/09 13:58:01;;;;;;;;;;;14.80;82.20;;;;;;5116236;28;20243;-70
2023/04/09 14:00:27;;;;;;;;;;;14.80;82.10;;;;;;5118015;28;19908;-69
2023/04/09 14:02:52;;;;;;;;;;;14.80;82.10;;;;;;5117281;28;19916;-70
2023/04/09 14:05:18;;;;;;;;;;;14.80;82.30;;;;;;5118058;28;20346;-70
2023/04/09 14:07:43;;;;;;;;;;;14.80;82.10;;;;;;5117492;28;20006;-70
2023/04/09 14:10:09;;;;;;;;;;;14.80;82.10;;;;;;5117937;28;19943;-70
2023/04/09 14:12:34;;;;;;;;;;;14.80;82.10;;;;;;5117898;28;19953;-70